sensor_id;sensor_type;location;lat;lon;timestamp;temperature;humidity
52973;DHT22;38837;48.916;2.336;2023-07-13T00:01:15;25.90;42.50
52973;DHT22;38837;48.916;2.336;2023-07-13T00:03:18;25.90;42.50
52973;DHT22;38837;48.916;2.336;2023-07-13T00:05:21;25.90;42.50
52973;DHT22;38837;48.916;2.336;2023-07-13T00:07:23;25.90;42.50
52973;DHT22;38837;48.916;2.336;2023-07-13T00:09:25;25.90;42.50
52973;DHT22;38837;48.916;2.336;2023-07-13T00:11:27;25.90;42.50
52973;DHT22;38837;48.916;2.336;2023-07-13T00:13:30;25.90;42.50
52973;DHT22;38837;48.916;2.336;2023-07-13T00:15:32;25.80;42.50
52973;DHT22;38837;48.916;2.336;2023-07-13T00:17:34;25.80;42.50
52973;DHT22;38837;48.916;2.336;2023-07-13T00:19:35;25.80;42.50
52973;DHT22;38837;48.916;2.336;2023-07-13T00:21:39;25.80;42.50
52973;DHT22;38837;48.916;2.336;2023-07-13T00:23:42;25.80;42.50
52973;DHT22;38837;48.916;2.336;2023-07-13T00:25:45;25.80;42.50
52973;DHT22;38837;48.916;2.336;2023-07-13T00:27:48;25.80;42.50
52973;DHT22;38837;48.916;2.336;2023-07-13T00:29:53;25.80;42.60
52973;DHT22;38837;48.916;2.336;2023-07-13T00:31:54;25.80;42.60
52973;DHT22;38837;48.916;2.336;2023-07-13T00:33:56;25.80;42.60
52973;DHT22;38837;48.916;2.336;2023-07-13T00:35:58;25.80;42.60
52973;DHT22;38837;48.916;2.336;2023-07-13T00:38:05;25.80;42.60
52973;DHT22;38837;48.916;2.336;2023-07-13T00:40:09;25.80;42.70
52973;DHT22;38837;48.916;2.336;2023-07-13T00:42:12;25.80;42.60
52973;DHT22;38837;48.916;2.336;2023-07-13T00:44:14;25.80;42.70
52973;DHT22;38837;48.916;2.336;2023-07-13T00:46:24;25.80;42.70
52973;DHT22;38837;48.916;2.336;2023-07-13T00:48:32;25.80;42.80
52973;DHT22;38837;48.916;2.336;2023-07-13T00:50:35;25.80;42.80
52973;DHT22;38837;48.916;2.336;2023-07-13T00:52:40;25.80;42.80
52973;DHT22;38837;48.916;2.336;2023-07-13T00:54:45;25.80;42.80
52973;DHT22;38837;48.916;2.336;2023-07-13T00:56:51;25.80;42.80
52973;DHT22;38837;48.916;2.336;2023-07-13T00:58:54;25.80;42.90
52973;DHT22;38837;48.916;2.336;2023-07-13T01:00:57;25.80;42.80
52973;DHT22;38837;48.916;2.336;2023-07-13T01:02:59;25.80;42.80
52973;DHT22;38837;48.916;2.336;2023-07-13T01:05:01;25.80;42.80
52973;DHT22;38837;48.916;2.336;2023-07-13T01:07:04;25.80;42.90
52973;DHT22;38837;48.916;2.336;2023-07-13T01:09:07;25.70;42.80
52973;DHT22;38837;48.916;2.336;2023-07-13T01:11:09;25.80;42.90
52973;DHT22;38837;48.916;2.336;2023-07-13T01:13:11;25.70;42.80
52973;DHT22;38837;48.916;2.336;2023-07-13T01:17:37;25.70;42.90
52973;DHT22;38837;48.916;2.336;2023-07-13T01:19:44;25.70;42.80
52973;DHT22;38837;48.916;2.336;2023-07-13T01:21:51;25.70;42.90
52973;DHT22;38837;48.916;2.336;2023-07-13T01:23:53;25.80;43.00
52973;DHT22;38837;48.916;2.336;2023-07-13T01:25:56;25.70;42.90
52973;DHT22;38837;48.916;2.336;2023-07-13T01:27:58;25.70;43.00
52973;DHT22;38837;48.916;2.336;2023-07-13T01:30:00;25.70;42.90
52973;DHT22;38837;48.916;2.336;2023-07-13T01:32:06;25.80;43.00
52973;DHT22;38837;48.916;2.336;2023-07-13T01:34:09;25.70;43.00
52973;DHT22;38837;48.916;2.336;2023-07-13T01:36:12;25.70;43.00
52973;DHT22;38837;48.916;2.336;2023-07-13T01:38:16;25.70;43.00
52973;DHT22;38837;48.916;2.336;2023-07-13T01:40:19;25.70;43.00
52973;DHT22;38837;48.916;2.336;2023-07-13T01:42:22;25.70;43.00
52973;DHT22;38837;48.916;2.336;2023-07-13T01:44:24;25.70;43.00
52973;DHT22;38837;48.916;2.336;2023-07-13T01:46:26;25.70;43.00
52973;DHT22;38837;48.916;2.336;2023-07-13T01:48:28;25.70;43.10
52973;DHT22;38837;48.916;2.336;2023-07-13T01:50:30;25.70;43.10
52973;DHT22;38837;48.916;2.336;2023-07-13T01:52:32;25.70;43.10
52973;DHT22;38837;48.916;2.336;2023-07-13T01:54:34;25.70;43.10
52973;DHT22;38837;48.916;2.336;2023-07-13T01:56:36;25.70;43.10
52973;DHT22;38837;48.916;2.336;2023-07-13T01:58:38;25.70;43.20
52973;DHT22;38837;48.916;2.336;2023-07-13T02:00:42;25.70;43.10
52973;DHT22;38837;48.916;2.336;2023-07-13T02:02:44;25.70;43.10
52973;DHT22;38837;48.916;2.336;2023-07-13T02:04:47;25.70;43.10
52973;DHT22;38837;48.916;2.336;2023-07-13T02:06:49;25.70;43.10
52973;DHT22;38837;48.916;2.336;2023-07-13T02:08:51;25.60;43.00
52973;DHT22;38837;48.916;2.336;2023-07-13T02:10:53;25.60;43.10
52973;DHT22;38837;48.916;2.336;2023-07-13T02:12:55;25.60;43.10
52973;DHT22;38837;48.916;2.336;2023-07-13T02:14:56;25.60;43.10
52973;DHT22;38837;48.916;2.336;2023-07-13T02:16:58;25.60;43.10
52973;DHT22;38837;48.916;2.336;2023-07-13T02:19:00;25.60;43.20
52973;DHT22;38837;48.916;2.336;2023-07-13T02:21:02;25.60;43.10
52973;DHT22;38837;48.916;2.336;2023-07-13T02:23:04;25.60;43.20
52973;DHT22;38837;48.916;2.336;2023-07-13T02:25:13;25.60;43.20
52973;DHT22;38837;48.916;2.336;2023-07-13T02:27:18;25.60;43.20
52973;DHT22;38837;48.916;2.336;2023-07-13T02:29:20;25.60;43.20
52973;DHT22;38837;48.916;2.336;2023-07-13T02:31:22;25.60;43.20
52973;DHT22;38837;48.916;2.336;2023-07-13T02:33:25;25.60;43.10
52973;DHT22;38837;48.916;2.336;2023-07-13T02:35:27;25.60;43.20
52973;DHT22;38837;48.916;2.336;2023-07-13T02:37:29;25.60;43.10
52973;DHT22;38837;48.916;2.336;2023-07-13T02:39:31;25.60;43.20
52973;DHT22;38837;48.916;2.336;2023-07-13T02:41:34;25.60;43.70
52973;DHT22;38837;48.916;2.336;2023-07-13T02:43:37;25.60;43.20
52973;DHT22;38837;48.916;2.336;2023-07-13T02:45:43;25.60;43.20
52973;DHT22;38837;48.916;2.336;2023-07-13T02:47:45;25.60;43.20
52973;DHT22;38837;48.916;2.336;2023-07-13T02:49:47;25.60;43.20
52973;DHT22;38837;48.916;2.336;2023-07-13T02:51:51;25.60;43.20
52973;DHT22;38837;48.916;2.336;2023-07-13T02:53:53;25.60;43.20
52973;DHT22;38837;48.916;2.336;2023-07-13T02:55:55;25.50;43.20
52973;DHT22;38837;48.916;2.336;2023-07-13T02:57:57;25.50;43.20
52973;DHT22;38837;48.916;2.336;2023-07-13T03:00:02;25.60;43.30
52973;DHT22;38837;48.916;2.336;2023-07-13T03:02:07;25.50;43.20
52973;DHT22;38837;48.916;2.336;2023-07-13T03:04:09;25.50;43.20
52973;DHT22;38837;48.916;2.336;2023-07-13T03:06:11;25.50;43.20
52973;DHT22;38837;48.916;2.336;2023-07-13T03:08:13;25.50;43.20
52973;DHT22;38837;48.916;2.336;2023-07-13T03:10:15;25.50;43.20
52973;DHT22;38837;48.916;2.336;2023-07-13T03:12:17;25.50;43.30
52973;DHT22;38837;48.916;2.336;2023-07-13T03:14:20;25.50;43.20
52973;DHT22;38837;48.916;2.336;2023-07-13T03:16:22;25.50;43.30
52973;DHT22;38837;48.916;2.336;2023-07-13T03:18:27;25.50;43.30
52973;DHT22;38837;48.916;2.336;2023-07-13T03:20:33;25.40;43.20
52973;DHT22;38837;48.916;2.336;2023-07-13T03:22:35;25.50;43.30
52973;DHT22;38837;48.916;2.336;2023-07-13T03:24:37;25.50;43.30
52973;DHT22;38837;48.916;2.336;2023-07-13T03:26:40;25.40;43.30
52973;DHT22;38837;48.916;2.336;2023-07-13T03:28:42;25.40;43.20
52973;DHT22;38837;48.916;2.336;2023-07-13T03:30:44;25.50;43.30
52973;DHT22;38837;48.916;2.336;2023-07-13T03:32:46;25.50;43.30
52973;DHT22;38837;48.916;2.336;2023-07-13T03:34:49;25.40;43.30
52973;DHT22;38837;48.916;2.336;2023-07-13T03:36:53;25.40;43.40
52973;DHT22;38837;48.916;2.336;2023-07-13T03:38:59;25.40;43.30
52973;DHT22;38837;48.916;2.336;2023-07-13T03:41:01;25.40;43.40
52973;DHT22;38837;48.916;2.336;2023-07-13T03:43:03;25.40;43.40
52973;DHT22;38837;48.916;2.336;2023-07-13T03:45:05;25.40;43.30
52973;DHT22;38837;48.916;2.336;2023-07-13T03:47:07;25.40;43.30
52973;DHT22;38837;48.916;2.336;2023-07-13T03:49:11;25.40;43.40
52973;DHT22;38837;48.916;2.336;2023-07-13T03:51:15;25.40;43.40
52973;DHT22;38837;48.916;2.336;2023-07-13T03:53:17;25.40;43.40
52973;DHT22;38837;48.916;2.336;2023-07-13T03:55:22;25.40;43.40
52973;DHT22;38837;48.916;2.336;2023-07-13T03:57:24;25.40;43.40
52973;DHT22;38837;48.916;2.336;2023-07-13T03:59:26;25.40;43.40
52973;DHT22;38837;48.916;2.336;2023-07-13T04:01:28;25.40;43.40
52973;DHT22;38837;48.916;2.336;2023-07-13T04:03:31;25.40;43.40
52973;DHT22;38837;48.916;2.336;2023-07-13T04:05:34;25.40;43.40
52973;DHT22;38837;48.916;2.336;2023-07-13T04:07:38;25.40;43.40
52973;DHT22;38837;48.916;2.336;2023-07-13T04:09:39;25.30;43.40
52973;DHT22;38837;48.916;2.336;2023-07-13T04:11:41;25.40;43.40
52973;DHT22;38837;48.916;2.336;2023-07-13T04:13:49;25.40;43.40
52973;DHT22;38837;48.916;2.336;2023-07-13T04:15:52;25.40;43.50
52973;DHT22;38837;48.916;2.336;2023-07-13T04:17:54;25.30;43.40
52973;DHT22;38837;48.916;2.336;2023-07-13T04:19:56;25.30;43.40
52973;DHT22;38837;48.916;2.336;2023-07-13T04:21:58;25.30;43.40
52973;DHT22;38837;48.916;2.336;2023-07-13T04:24:00;25.30;43.40
52973;DHT22;38837;48.916;2.336;2023-07-13T04:26:02;25.30;43.50
52973;DHT22;38837;48.916;2.336;2023-07-13T04:28:05;25.30;43.40
52973;DHT22;38837;48.916;2.336;2023-07-13T04:30:09;25.30;43.40
52973;DHT22;38837;48.916;2.336;2023-07-13T04:32:11;25.30;43.40
52973;DHT22;38837;48.916;2.336;2023-07-13T04:34:13;25.30;43.40
52973;DHT22;38837;48.916;2.336;2023-07-13T04:36:16;25.30;43.50
52973;DHT22;38837;48.916;2.336;2023-07-13T04:38:18;25.30;43.50
52973;DHT22;38837;48.916;2.336;2023-07-13T04:40:20;25.30;43.60
52973;DHT22;38837;48.916;2.336;2023-07-13T04:42:22;25.30;43.60
52973;DHT22;38837;48.916;2.336;2023-07-13T04:44:24;25.30;43.60
52973;DHT22;38837;48.916;2.336;2023-07-13T04:46:26;25.30;43.60
52973;DHT22;38837;48.916;2.336;2023-07-13T04:48:28;25.30;43.60
52973;DHT22;38837;48.916;2.336;2023-07-13T04:50:30;25.30;43.70
52973;DHT22;38837;48.916;2.336;2023-07-13T04:52:32;25.20;43.60
52973;DHT22;38837;48.916;2.336;2023-07-13T04:54:34;25.30;43.60
52973;DHT22;38837;48.916;2.336;2023-07-13T04:56:36;25.30;43.70
52973;DHT22;38837;48.916;2.336;2023-07-13T04:58:38;25.20;43.60
52973;DHT22;38837;48.916;2.336;2023-07-13T05:00:41;25.20;43.60
52973;DHT22;38837;48.916;2.336;2023-07-13T05:02:44;25.20;43.70
52973;DHT22;38837;48.916;2.336;2023-07-13T05:04:47;25.20;43.70
52973;DHT22;38837;48.916;2.336;2023-07-13T05:06:49;25.20;43.70
52973;DHT22;38837;48.916;2.336;2023-07-13T05:08:51;25.20;43.80
52973;DHT22;38837;48.916;2.336;2023-07-13T05:11:00;25.20;43.80
52973;DHT22;38837;48.916;2.336;2023-07-13T05:13:02;25.20;43.80
52973;DHT22;38837;48.916;2.336;2023-07-13T05:15:05;25.20;43.80
52973;DHT22;38837;48.916;2.336;2023-07-13T05:17:07;25.20;43.80
52973;DHT22;38837;48.916;2.336;2023-07-13T05:19:12;25.20;43.80
52973;DHT22;38837;48.916;2.336;2023-07-13T05:21:14;25.20;43.90
52973;DHT22;38837;48.916;2.336;2023-07-13T05:23:16;25.20;43.90
52973;DHT22;38837;48.916;2.336;2023-07-13T05:25:18;25.20;43.90
52973;DHT22;38837;48.916;2.336;2023-07-13T05:27:20;25.20;43.90
52973;DHT22;38837;48.916;2.336;2023-07-13T05:29:27;25.20;43.90
52973;DHT22;38837;48.916;2.336;2023-07-13T05:31:29;25.20;43.90
52973;DHT22;38837;48.916;2.336;2023-07-13T05:33:36;25.20;43.90
52973;DHT22;38837;48.916;2.336;2023-07-13T05:35:38;25.20;44.00
52973;DHT22;38837;48.916;2.336;2023-07-13T05:37:40;25.20;44.00
52973;DHT22;38837;48.916;2.336;2023-07-13T05:39:42;25.20;44.00
52973;DHT22;38837;48.916;2.336;2023-07-13T05:41:44;25.20;44.00
52973;DHT22;38837;48.916;2.336;2023-07-13T05:43:46;25.20;44.00
52973;DHT22;38837;48.916;2.336;2023-07-13T05:45:48;25.20;44.10
52973;DHT22;38837;48.916;2.336;2023-07-13T05:47:51;25.20;44.10
52973;DHT22;38837;48.916;2.336;2023-07-13T05:49:53;25.20;44.10
52973;DHT22;38837;48.916;2.336;2023-07-13T05:51:55;25.20;44.10
52973;DHT22;38837;48.916;2.336;2023-07-13T05:53:57;25.20;44.10
52973;DHT22;38837;48.916;2.336;2023-07-13T05:55:59;25.20;44.10
52973;DHT22;38837;48.916;2.336;2023-07-13T05:58:03;25.20;44.20
52973;DHT22;38837;48.916;2.336;2023-07-13T06:00:06;25.20;44.10
52973;DHT22;38837;48.916;2.336;2023-07-13T06:02:09;25.20;44.20
52973;DHT22;38837;48.916;2.336;2023-07-13T06:04:12;25.20;44.20
52973;DHT22;38837;48.916;2.336;2023-07-13T06:06:15;25.20;44.20
52973;DHT22;38837;48.916;2.336;2023-07-13T06:08:17;25.20;44.20
52973;DHT22;38837;48.916;2.336;2023-07-13T06:10:22;25.20;44.20
52973;DHT22;38837;48.916;2.336;2023-07-13T06:12:24;25.20;44.20
52973;DHT22;38837;48.916;2.336;2023-07-13T06:14:26;25.10;44.20
52973;DHT22;38837;48.916;2.336;2023-07-13T06:16:28;25.20;44.20
52973;DHT22;38837;48.916;2.336;2023-07-13T06:18:32;25.20;44.20
52973;DHT22;38837;48.916;2.336;2023-07-13T06:20:34;25.20;44.20
52973;DHT22;38837;48.916;2.336;2023-07-13T06:22:36;25.20;44.20
52973;DHT22;38837;48.916;2.336;2023-07-13T06:24:38;25.10;44.10
52973;DHT22;38837;48.916;2.336;2023-07-13T06:26:40;25.10;44.10
52973;DHT22;38837;48.916;2.336;2023-07-13T06:28:43;25.10;44.20
52973;DHT22;38837;48.916;2.336;2023-07-13T06:30:45;25.20;44.20
52973;DHT22;38837;48.916;2.336;2023-07-13T06:32:47;25.10;44.20
52973;DHT22;38837;48.916;2.336;2023-07-13T06:34:49;25.10;44.20
52973;DHT22;38837;48.916;2.336;2023-07-13T06:36:53;25.20;44.20
52973;DHT22;38837;48.916;2.336;2023-07-13T06:38:55;25.20;44.20
52973;DHT22;38837;48.916;2.336;2023-07-13T06:40:57;25.20;44.30
52973;DHT22;38837;48.916;2.336;2023-07-13T06:42:59;25.20;44.30
52973;DHT22;38837;48.916;2.336;2023-07-13T06:45:02;25.20;44.30
52973;DHT22;38837;48.916;2.336;2023-07-13T06:47:07;25.20;44.20
52973;DHT22;38837;48.916;2.336;2023-07-13T06:49:09;25.20;44.20
52973;DHT22;38837;48.916;2.336;2023-07-13T06:51:11;25.10;44.20
52973;DHT22;38837;48.916;2.336;2023-07-13T06:53:13;25.10;44.30
52973;DHT22;38837;48.916;2.336;2023-07-13T06:55:15;25.20;44.30
52973;DHT22;38837;48.916;2.336;2023-07-13T06:57:17;25.10;44.20
52973;DHT22;38837;48.916;2.336;2023-07-13T06:59:19;25.10;44.20
52973;DHT22;38837;48.916;2.336;2023-07-13T07:01:21;25.10;44.20
52973;DHT22;38837;48.916;2.336;2023-07-13T07:03:23;25.10;44.20
52973;DHT22;38837;48.916;2.336;2023-07-13T07:05:25;25.10;44.20
52973;DHT22;38837;48.916;2.336;2023-07-13T07:07:27;25.10;44.20
52973;DHT22;38837;48.916;2.336;2023-07-13T07:09:29;25.20;44.20
52973;DHT22;38837;48.916;2.336;2023-07-13T07:11:35;25.10;44.10
52973;DHT22;38837;48.916;2.336;2023-07-13T07:13:37;25.20;44.20
52973;DHT22;38837;48.916;2.336;2023-07-13T07:15:39;25.10;44.10
52973;DHT22;38837;48.916;2.336;2023-07-13T07:17:41;25.20;44.80
52973;DHT22;38837;48.916;2.336;2023-07-13T07:19:43;25.20;44.20
52973;DHT22;38837;48.916;2.336;2023-07-13T07:21:44;25.20;44.20
52973;DHT22;38837;48.916;2.336;2023-07-13T07:23:46;25.20;44.10
52973;DHT22;38837;48.916;2.336;2023-07-13T07:25:48;25.20;44.10
52973;DHT22;38837;48.916;2.336;2023-07-13T07:27:50;25.20;44.10
52973;DHT22;38837;48.916;2.336;2023-07-13T07:29:55;25.20;44.10
52973;DHT22;38837;48.916;2.336;2023-07-13T07:32:02;25.30;44.30
52973;DHT22;38837;48.916;2.336;2023-07-13T07:34:19;25.20;44.00
52973;DHT22;38837;48.916;2.336;2023-07-13T07:36:21;25.20;44.10
52973;DHT22;38837;48.916;2.336;2023-07-13T07:38:26;25.20;44.10
52973;DHT22;38837;48.916;2.336;2023-07-13T07:40:28;25.30;44.10
52973;DHT22;38837;48.916;2.336;2023-07-13T07:42:33;25.20;44.10
52973;DHT22;38837;48.916;2.336;2023-07-13T07:44:35;25.30;44.10
52973;DHT22;38837;48.916;2.336;2023-07-13T07:46:38;25.30;44.10
52973;DHT22;38837;48.916;2.336;2023-07-13T07:48:42;25.30;44.60
52973;DHT22;38837;48.916;2.336;2023-07-13T07:50:44;25.30;44.10
52973;DHT22;38837;48.916;2.336;2023-07-13T07:52:46;25.30;44.00
52973;DHT22;38837;48.916;2.336;2023-07-13T07:54:48;25.30;44.00
52973;DHT22;38837;48.916;2.336;2023-07-13T07:56:53;25.30;44.10
52973;DHT22;38837;48.916;2.336;2023-07-13T07:58:58;25.30;44.00
52973;DHT22;38837;48.916;2.336;2023-07-13T08:01:04;25.30;44.00
52973;DHT22;38837;48.916;2.336;2023-07-13T08:03:09;25.40;44.10
52973;DHT22;38837;48.916;2.336;2023-07-13T08:05:15;25.40;44.00
52973;DHT22;38837;48.916;2.336;2023-07-13T08:07:19;25.30;44.00
52973;DHT22;38837;48.916;2.336;2023-07-13T08:09:22;25.40;44.10
52973;DHT22;38837;48.916;2.336;2023-07-13T08:11:24;25.40;44.10
52973;DHT22;38837;48.916;2.336;2023-07-13T08:13:28;25.40;44.10
52973;DHT22;38837;48.916;2.336;2023-07-13T08:15:30;25.40;44.10
52973;DHT22;38837;48.916;2.336;2023-07-13T08:17:32;25.40;44.10
52973;DHT22;38837;48.916;2.336;2023-07-13T08:19:34;25.40;44.10
52973;DHT22;38837;48.916;2.336;2023-07-13T08:21:36;25.40;44.10
52973;DHT22;38837;48.916;2.336;2023-07-13T08:23:41;25.40;44.10
52973;DHT22;38837;48.916;2.336;2023-07-13T08:25:53;25.40;44.10
52973;DHT22;38837;48.916;2.336;2023-07-13T08:27:56;25.40;44.10
52973;DHT22;38837;48.916;2.336;2023-07-13T08:29:57;25.40;44.10
52973;DHT22;38837;48.916;2.336;2023-07-13T08:31:59;25.50;44.10
52973;DHT22;38837;48.916;2.336;2023-07-13T08:34:01;25.40;44.10
52973;DHT22;38837;48.916;2.336;2023-07-13T08:36:04;25.40;44.10
52973;DHT22;38837;48.916;2.336;2023-07-13T08:38:07;25.40;44.10
52973;DHT22;38837;48.916;2.336;2023-07-13T08:40:10;25.40;44.10
52973;DHT22;38837;48.916;2.336;2023-07-13T08:46:40;25.40;44.20
52973;DHT22;38837;48.916;2.336;2023-07-13T08:48:52;25.40;44.10
52973;DHT22;38837;48.916;2.336;2023-07-13T08:53:24;25.40;44.20
52973;DHT22;38837;48.916;2.336;2023-07-13T08:55:31;25.40;44.10
52973;DHT22;38837;48.916;2.336;2023-07-13T08:57:35;25.40;44.10
52973;DHT22;38837;48.916;2.336;2023-07-13T08:59:37;25.40;44.10
52973;DHT22;38837;48.916;2.336;2023-07-13T09:01:45;25.50;44.20
52973;DHT22;38837;48.916;2.336;2023-07-13T09:04:18;25.50;44.10
52973;DHT22;38837;48.916;2.336;2023-07-13T09:06:23;25.50;44.20
52973;DHT22;38837;48.916;2.336;2023-07-13T09:08:59;25.40;44.10
52973;DHT22;38837;48.916;2.336;2023-07-13T09:13:55;25.50;44.10
52973;DHT22;38837;48.916;2.336;2023-07-13T09:15:59;25.50;44.10
52973;DHT22;38837;48.916;2.336;2023-07-13T09:18:26;25.50;44.10
52973;DHT22;38837;48.916;2.336;2023-07-13T09:20:44;25.50;44.10
52973;DHT22;38837;48.916;2.336;2023-07-13T09:22:48;25.50;44.10
52973;DHT22;38837;48.916;2.336;2023-07-13T09:24:55;25.50;44.60
52973;DHT22;38837;48.916;2.336;2023-07-13T09:27:00;25.50;44.00
52973;DHT22;38837;48.916;2.336;2023-07-13T09:29:14;25.50;44.00
52973;DHT22;38837;48.916;2.336;2023-07-13T09:31:28;25.50;44.50
52973;DHT22;38837;48.916;2.336;2023-07-13T09:33:33;25.50;44.00
52973;DHT22;38837;48.916;2.336;2023-07-13T09:35:36;25.50;44.00
52973;DHT22;38837;48.916;2.336;2023-07-13T09:37:39;25.50;44.00
52973;DHT22;38837;48.916;2.336;2023-07-13T09:39:43;25.50;44.00
52973;DHT22;38837;48.916;2.336;2023-07-13T09:42:07;25.50;43.90
52973;DHT22;38837;48.916;2.336;2023-07-13T09:44:15;25.50;44.00
52973;DHT22;38837;48.916;2.336;2023-07-13T09:46:21;25.50;44.00
52973;DHT22;38837;48.916;2.336;2023-07-13T09:48:24;25.50;44.10
52973;DHT22;38837;48.916;2.336;2023-07-13T09:50:26;25.50;44.20
52973;DHT22;38837;48.916;2.336;2023-07-13T09:52:43;25.50;44.20
52973;DHT22;38837;48.916;2.336;2023-07-13T09:54:48;25.50;44.20
52973;DHT22;38837;48.916;2.336;2023-07-13T09:56:58;25.50;44.20
52973;DHT22;38837;48.916;2.336;2023-07-13T09:59:00;25.50;44.30
52973;DHT22;38837;48.916;2.336;2023-07-13T10:01:03;25.50;44.60
52973;DHT22;38837;48.916;2.336;2023-07-13T10:03:20;25.60;45.50
52973;DHT22;38837;48.916;2.336;2023-07-13T10:05:23;25.60;45.00
52973;DHT22;38837;48.916;2.336;2023-07-13T10:07:27;25.60;45.00
52973;DHT22;38837;48.916;2.336;2023-07-13T10:09:31;25.60;45.20
52973;DHT22;38837;48.916;2.336;2023-07-13T10:11:35;25.70;45.50
52973;DHT22;38837;48.916;2.336;2023-07-13T10:15:47;25.70;45.70
52973;DHT22;38837;48.916;2.336;2023-07-13T10:17:53;25.70;45.00
52973;DHT22;38837;48.916;2.336;2023-07-13T10:20:03;25.70;44.70
52973;DHT22;38837;48.916;2.336;2023-07-13T10:24:35;25.80;44.70
52973;DHT22;38837;48.916;2.336;2023-07-13T10:26:46;25.80;44.70
52973;DHT22;38837;48.916;2.336;2023-07-13T10:28:52;25.80;44.60
52973;DHT22;38837;48.916;2.336;2023-07-13T10:30:58;25.80;44.60
52973;DHT22;38837;48.916;2.336;2023-07-13T10:33:04;25.80;44.60
52973;DHT22;38837;48.916;2.336;2023-07-13T10:35:11;25.70;44.50
52973;DHT22;38837;48.916;2.336;2023-07-13T10:37:26;25.80;44.60
52973;DHT22;38837;48.916;2.336;2023-07-13T10:39:28;25.80;44.70
52973;DHT22;38837;48.916;2.336;2023-07-13T10:41:36;25.80;44.60
52973;DHT22;38837;48.916;2.336;2023-07-13T10:43:48;25.70;44.60
52973;DHT22;38837;48.916;2.336;2023-07-13T10:45:53;25.70;44.60
52973;DHT22;38837;48.916;2.336;2023-07-13T10:47:56;25.70;44.60
52973;DHT22;38837;48.916;2.336;2023-07-13T10:49:59;25.80;44.70
52973;DHT22;38837;48.916;2.336;2023-07-13T10:52:02;25.70;44.60
52973;DHT22;38837;48.916;2.336;2023-07-13T10:56:30;25.80;44.70
52973;DHT22;38837;48.916;2.336;2023-07-13T10:58:39;25.80;44.60
52973;DHT22;38837;48.916;2.336;2023-07-13T11:00:53;25.80;44.60
52973;DHT22;38837;48.916;2.336;2023-07-13T11:02:58;25.80;44.60
52973;DHT22;38837;48.916;2.336;2023-07-13T11:05:26;25.80;44.50
52973;DHT22;38837;48.916;2.336;2023-07-13T11:07:30;25.80;44.50
52973;DHT22;38837;48.916;2.336;2023-07-13T11:09:39;25.80;44.50
52973;DHT22;38837;48.916;2.336;2023-07-13T11:11:42;25.80;44.50
52973;DHT22;38837;48.916;2.336;2023-07-13T11:15:48;25.80;44.70
52973;DHT22;38837;48.916;2.336;2023-07-13T11:17:54;25.80;45.00
52973;DHT22;38837;48.916;2.336;2023-07-13T11:22:19;25.90;44.70
52973;DHT22;38837;48.916;2.336;2023-07-13T11:24:22;25.90;44.60
52973;DHT22;38837;48.916;2.336;2023-07-13T11:28:49;25.90;44.60
52973;DHT22;38837;48.916;2.336;2023-07-13T11:35:23;26.00;44.70
52973;DHT22;38837;48.916;2.336;2023-07-13T11:37:26;26.00;44.50
52973;DHT22;38837;48.916;2.336;2023-07-13T11:39:32;26.00;44.40
52973;DHT22;38837;48.916;2.336;2023-07-13T11:41:38;26.00;44.40
52973;DHT22;38837;48.916;2.336;2023-07-13T11:43:45;26.00;44.30
52973;DHT22;38837;48.916;2.336;2023-07-13T11:45:50;26.10;44.30
52973;DHT22;38837;48.916;2.336;2023-07-13T11:47:52;26.10;44.20
52973;DHT22;38837;48.916;2.336;2023-07-13T11:49:55;26.10;44.20
52973;DHT22;38837;48.916;2.336;2023-07-13T11:52:02;26.20;44.20
52973;DHT22;38837;48.916;2.336;2023-07-13T11:56:21;26.20;44.20
52973;DHT22;38837;48.916;2.336;2023-07-13T11:58:26;26.20;44.20
52973;DHT22;38837;48.916;2.336;2023-07-13T12:00:31;26.20;44.20
52973;DHT22;38837;48.916;2.336;2023-07-13T12:02:43;26.20;44.20
52973;DHT22;38837;48.916;2.336;2023-07-13T12:04:46;26.20;44.10
52973;DHT22;38837;48.916;2.336;2023-07-13T12:06:58;26.30;44.10
52973;DHT22;38837;48.916;2.336;2023-07-13T12:09:14;26.30;44.00
52973;DHT22;38837;48.916;2.336;2023-07-13T12:11:20;26.30;43.90
52973;DHT22;38837;48.916;2.336;2023-07-13T12:13:24;26.40;44.00
52973;DHT22;38837;48.916;2.336;2023-07-13T12:15:35;26.30;43.90
52973;DHT22;38837;48.916;2.336;2023-07-13T12:17:38;26.40;43.90
52973;DHT22;38837;48.916;2.336;2023-07-13T12:19:41;26.40;43.90
52973;DHT22;38837;48.916;2.336;2023-07-13T12:21:44;26.40;43.90
52973;DHT22;38837;48.916;2.336;2023-07-13T12:23:48;26.40;43.90
52973;DHT22;38837;48.916;2.336;2023-07-13T12:25:51;26.40;43.90
52973;DHT22;38837;48.916;2.336;2023-07-13T12:27:54;26.40;43.80
52973;DHT22;38837;48.916;2.336;2023-07-13T12:30:05;26.40;43.80
52973;DHT22;38837;48.916;2.336;2023-07-13T12:32:17;26.40;43.70
52973;DHT22;38837;48.916;2.336;2023-07-13T12:34:21;26.40;43.70
52973;DHT22;38837;48.916;2.336;2023-07-13T12:36:23;26.30;43.60
52973;DHT22;38837;48.916;2.336;2023-07-13T12:38:25;26.30;43.50
52973;DHT22;38837;48.916;2.336;2023-07-13T12:40:33;26.30;43.50
52973;DHT22;38837;48.916;2.336;2023-07-13T12:42:38;26.30;43.20
52973;DHT22;38837;48.916;2.336;2023-07-13T12:44:41;26.30;43.30
52973;DHT22;38837;48.916;2.336;2023-07-13T12:47:05;26.30;43.30
52973;DHT22;38837;48.916;2.336;2023-07-13T12:49:13;26.30;43.30
52973;DHT22;38837;48.916;2.336;2023-07-13T12:51:25;26.20;43.10
52973;DHT22;38837;48.916;2.336;2023-07-13T12:53:29;26.20;43.00
52973;DHT22;38837;48.916;2.336;2023-07-13T12:55:49;26.20;43.00
52973;DHT22;38837;48.916;2.336;2023-07-13T12:57:56;26.30;43.00
52973;DHT22;38837;48.916;2.336;2023-07-13T13:00:03;26.20;42.90
52973;DHT22;38837;48.916;2.336;2023-07-13T13:02:17;26.30;43.10
52973;DHT22;38837;48.916;2.336;2023-07-13T13:04:24;26.30;43.10
52973;DHT22;38837;48.916;2.336;2023-07-13T13:06:28;26.30;43.10
52973;DHT22;38837;48.916;2.336;2023-07-13T13:08:34;26.30;42.90
52973;DHT22;38837;48.916;2.336;2023-07-13T13:10:36;26.40;43.60
52973;DHT22;38837;48.916;2.336;2023-07-13T13:12:39;26.40;43.70
52973;DHT22;38837;48.916;2.336;2023-07-13T13:14:44;26.50;43.60
52973;DHT22;38837;48.916;2.336;2023-07-13T13:16:49;26.50;43.60
52973;DHT22;38837;48.916;2.336;2023-07-13T13:18:54;26.60;43.80
52973;DHT22;38837;48.916;2.336;2023-07-13T13:20:58;26.60;43.10
52973;DHT22;38837;48.916;2.336;2023-07-13T13:23:00;26.70;42.90
52973;DHT22;38837;48.916;2.336;2023-07-13T13:25:02;26.70;42.80
52973;DHT22;38837;48.916;2.336;2023-07-13T13:27:19;26.80;42.90
52973;DHT22;38837;48.916;2.336;2023-07-13T13:29:23;26.80;42.90
52973;DHT22;38837;48.916;2.336;2023-07-13T13:31:26;26.80;42.90
52973;DHT22;38837;48.916;2.336;2023-07-13T13:33:28;26.80;42.90
52973;DHT22;38837;48.916;2.336;2023-07-13T13:35:32;26.80;42.80
52973;DHT22;38837;48.916;2.336;2023-07-13T13:37:34;26.90;42.90